Time;durP1;ratioP1;P1;durP2;ratioP2;P2;SDS_P1;SDS_P2;PMS_P1;PMS_P2;Temp;Humidity;BMP_temperature;BMP_pressure;BME280_temperature;BME280_humidity;BME280_pressure;Samples;Min_cycle;Max_cycle;Signal;HPM_P1;HPM_P2
2021/08/10 00:02:10;;;;;;;1.27;0.57;;;16.20;90.60;;;;;;5096230;28;20483;-77
2021/08/10 00:04:37;;;;;;;2.33;0.90;;;16.20;90.60;;;;;;5113354;28;20043;-77
2021/08/10 00:07:04;;;;;;;1.73;0.60;;;16.20;90.60;;;;;;5116609;28;20078;-77
2021/08/10 00:09:31;;;;;;;2.83;0.60;;;16.20;90.70;;;;;;5112910;28;20475;-77
2021/08/10 00:11:59;;;;;;;1.83;0.90;;;16.20;91.00;;;;;;5125324;27;20071;-77
2021/08/10 00:14:26;;;;;;;1.80;0.90;;;16.20;90.70;;;;;;5127983;27;20077;-77
2021/08/10 00:16:53;;;;;;;2.10;0.80;;;16.20;90.80;;;;;;5118362;27;20054;-77
2021/08/10 00:19:21;;;;;;;2.05;0.80;;;16.20;90.80;;;;;;5109001;27;20066;-77
2021/08/10 00:21:48;;;;;;;2.60;0.63;;;16.20;90.80;;;;;;5119602;27;20036;-77
2021/08/10 00:24:15;;;;;;;1.48;0.60;;;16.20;90.80;;;;;;5126479;27;20035;-77
2021/08/10 00:26:41;;;;;;;1.50;0.50;;;16.20;91.10;;;;;;5098112;28;20079;-77
2021/08/10 00:29:08;;;;;;;1.92;0.60;;;16.10;90.90;;;;;;5100462;28;20487;-77
2021/08/10 00:31:35;;;;;;;3.55;0.70;;;16.10;90.90;;;;;;5110177;28;20067;-77
2021/08/10 00:34:03;;;;;;;1.55;0.68;;;16.10;90.90;;;;;;5100355;28;20062;-77
2021/08/10 00:36:30;;;;;;;1.15;0.50;;;16.10;91.00;;;;;;5124254;27;20035;-77
2021/08/10 00:38:57;;;;;;;0.93;0.43;;;16.10;91.00;;;;;;5110331;28;20135;-77
2021/08/10 00:41:25;;;;;;;2.95;0.52;;;16.10;91.00;;;;;;5131531;27;20031;-77
2021/08/10 00:43:55;;;;;;;2.55;0.60;;;16.00;91.00;;;;;;5131444;27;20042;-77
2021/08/10 00:46:25;;;;;;;2.33;0.60;;;16.00;91.10;;;;;;5087103;28;20047;-77
2021/08/10 00:48:53;;;;;;;1.63;0.52;;;16.00;91.10;;;;;;5099736;28;20039;-78
2021/08/10 00:51:22;;;;;;;1.58;0.70;;;16.00;91.10;;;;;;5100647;28;20495;-78
2021/08/10 00:53:56;;;;;;;1.33;0.65;;;16.00;91.10;;;;;;5093533;28;20040;-77
2021/08/10 00:56:24;;;;;;;1.60;0.70;;;16.00;91.20;;;;;;5117752;27;20096;-77
2021/08/10 00:58:53;;;;;;;1.58;0.60;;;16.00;91.20;;;;;;5101583;28;20039;-77
2021/08/10 01:01:20;;;;;;;2.65;0.88;;;16.00;91.20;;;;;;5112515;27;20491;-77
2021/08/10 01:03:48;;;;;;;1.42;0.60;;;15.90;91.20;;;;;;5095167;28;20040;-77
2021/08/10 01:06:45;;;;;;;1.83;0.70;;;15.90;91.20;;;;;;5109574;27;20047;-77
2021/08/10 01:09:19;;;;;;;1.65;0.70;;;16.00;91.30;;;;;;5081457;27;20051;-77
2021/08/10 01:12:13;;;;;;;1.60;0.60;;;16.00;91.30;;;;;;5109274;27;20055;-77
2021/08/10 01:14:52;;;;;;;2.25;0.55;;;16.00;91.30;;;;;;5126122;27;20040;-77
2021/08/10 01:17:27;;;;;;;1.58;0.60;;;15.90;91.30;;;;;;5123597;27;20045;-77
2021/08/10 01:20:07;;;;;;;1.63;0.73;;;15.90;91.30;;;;;;5124674;27;20391;-77
2021/08/10 01:22:38;;;;;;;;;;;15.90;91.30;;;;;;5114867;28;20039;-77
2021/08/10 01:25:12;;;;;;;1.45;0.60;;;15.90;91.50;;;;;;5114635;28;20014;-77
2021/08/10 01:28:07;;;;;;;1.48;0.60;;;15.90;91.40;;;;;;5096937;28;20047;-77
2021/08/10 01:31:06;;;;;;;2.38;0.60;;;15.90;91.40;;;;;;5076928;28;20090;-78
2021/08/10 01:33:43;;;;;;;2.65;0.70;;;15.90;91.40;;;;;;5097253;28;20040;-77
2021/08/10 01:36:12;;;;;;;3.28;0.80;;;15.90;91.50;;;;;;5124411;27;20048;-77
2021/08/10 01:38:45;;;;;;;1.75;0.85;;;15.90;91.40;;;;;;5107584;27;20047;-77
2021/08/10 01:41:13;;;;;;;1.27;0.60;;;15.90;91.40;;;;;;5106238;28;20066;-77
2021/08/10 01:43:43;;;;;;;2.65;0.77;;;15.90;91.50;;;;;;5109818;28;20044;-77
2021/08/10 01:46:12;;;;;;;1.73;0.70;;;15.90;91.50;;;;;;5104926;28;20040;-77
2021/08/10 01:48:39;;;;;;;1.60;0.70;;;15.90;91.50;;;;;;5112807;28;20040;-78
2021/08/10 01:51:09;;;;;;;1.73;0.70;;;15.90;91.50;;;;;;5097564;28;20050;-77
2021/08/10 01:53:38;;;;;;;1.70;0.70;;;15.90;91.50;;;;;;5115430;27;20071;-77
2021/08/10 01:56:08;;;;;;;1.48;0.50;;;15.90;91.50;;;;;;5113552;27;20043;-77
2021/08/10 01:58:43;;;;;;;1.67;0.65;;;15.90;91.50;;;;;;5099442;28;20844;-77
2021/08/10 02:01:10;;;;;;;2.50;0.85;;;15.90;91.50;;;;;;5096281;28;20038;-78
2021/08/10 02:03:43;;;;;;;1.50;0.50;;;15.90;91.50;;;;;;5113152;27;20043;-77
2021/08/10 02:06:17;;;;;;;1.77;0.77;;;15.90;91.50;;;;;;5099868;27;20062;-77
2021/08/10 02:08:51;;;;;;;2.65;0.80;;;16.00;91.50;;;;;;5097049;28;20047;-77
2021/08/10 02:11:24;;;;;;;2.20;0.80;;;16.00;91.50;;;;;;5117107;27;20522;-77
2021/08/10 02:13:56;;;;;;;1.42;0.60;;;16.10;91.50;;;;;;5112064;28;20084;-77
2021/08/10 02:16:27;;;;;;;1.10;0.52;;;16.10;91.50;;;;;;5095946;28;20176;-78
2021/08/10 02:18:54;;;;;;;2.05;0.60;;;16.10;91.50;;;;;;5113014;28;20047;-75
2021/08/10 02:21:40;;;;;;;1.25;0.60;;;16.10;91.50;;;;;;5102743;28;20577;-75
2021/08/10 02:24:16;;;;;;;1.77;0.75;;;16.10;91.50;;;;;;5094947;28;20495;-75
2021/08/10 02:26:46;;;;;;;1.50;0.70;;;16.10;91.50;;;;;;5106016;28;20047;-75
2021/08/10 02:29:18;;;;;;;1.58;0.60;;;16.10;91.50;;;;;;5112542;27;20069;-75
2021/08/10 02:31:49;;;;;;;1.73;0.70;;;16.10;91.50;;;;;;5093127;28;20052;-75
2021/08/10 02:34:20;;;;;;;3.40;0.80;;;16.10;91.50;;;;;;5106327;28;20040;-75
2021/08/10 02:36:53;;;;;;;;;;;16.10;91.80;;;;;;5096430;28;20047;-76
2021/08/10 02:39:22;;;;;;;1.23;0.50;;;16.00;91.70;;;;;;5094433;28;20364;-75
2021/08/10 02:41:52;;;;;;;2.05;0.95;;;16.00;91.70;;;;;;5094346;28;20039;-76
2021/08/10 02:44:21;;;;;;;2.10;0.93;;;16.00;91.70;;;;;;5110934;28;20040;-75
2021/08/10 02:46:48;;;;;;;1.23;0.50;;;16.00;91.70;;;;;;5104031;28;20036;-77
2021/08/10 02:49:16;;;;;;;2.97;0.75;;;16.00;91.70;;;;;;5095718;28;20127;-77
2021/08/10 02:51:43;;;;;;;1.50;0.60;;;16.00;91.70;;;;;;5102533;27;20046;-77
2021/08/10 02:54:11;;;;;;;2.72;0.85;;;16.00;91.70;;;;;;5112442;28;20562;-77
2021/08/10 02:57:00;;;;;;;1.88;0.60;;;16.00;91.70;;;;;;5088948;28;20089;-77
2021/08/10 02:59:33;;;;;;;2.05;0.80;;;16.00;91.60;;;;;;5107411;27;20399;-77
2021/08/10 03:02:08;;;;;;;;;;;15.90;91.70;;;;;;5097151;28;20061;-77
2021/08/10 03:04:42;;;;;;;3.78;0.88;;;15.90;91.80;;;;;;5114398;28;19920;-77
2021/08/10 03:07:09;;;;;;;1.80;0.82;;;15.90;91.80;;;;;;5108932;27;20050;-77
2021/08/10 03:09:37;;;;;;;1.67;0.73;;;15.90;91.80;;;;;;5086460;27;20035;-77
2021/08/10 03:12:06;;;;;;;3.20;0.80;;;15.90;91.80;;;;;;5119087;27;20104;-77
2021/08/10 03:14:34;;;;;;;1.02;0.43;;;15.80;91.80;;;;;;5078828;28;20487;-78
2021/08/10 03:17:06;;;;;;;1.83;0.70;;;15.80;91.80;;;;;;5105796;28;20055;-77
2021/08/10 03:19:37;;;;;;;1.80;0.67;;;15.80;91.80;;;;;;5111721;28;21968;-77
2021/08/10 03:22:05;;;;;;;1.73;0.75;;;15.80;91.80;;;;;;5104277;28;20499;-77
2021/08/10 03:24:32;;;;;;;1.90;0.98;;;15.80;91.90;;;;;;5107672;28;20431;-78
2021/08/10 03:27:05;;;;;;;1.50;0.52;;;15.80;92.00;;;;;;5089988;28;20097;-77
2021/08/10 03:29:34;;;;;;;1.85;0.60;;;15.80;91.90;;;;;;5093816;28;20047;-77
2021/08/10 03:32:04;;;;;;;1.88;0.80;;;15.80;91.90;;;;;;5111541;28;20162;-77
2021/08/10 03:34:32;;;;;;;1.58;0.60;;;15.80;91.90;;;;;;5088362;28;20048;-77
2021/08/10 03:37:02;;;;;;;1.67;0.63;;;15.70;91.90;;;;;;5090896;28;20060;-77
2021/08/10 03:39:32;;;;;;;2.03;0.85;;;15.70;91.90;;;;;;5088789;28;20039;-77
2021/08/10 03:42:01;;;;;;;1.70;0.80;;;15.70;92.00;;;;;;5111278;28;20062;-77
2021/08/10 03:44:28;;;;;;;3.22;0.73;;;15.70;92.00;;;;;;5112073;28;20521;-77
2021/08/10 03:46:56;;;;;;;2.63;1.00;;;15.70;92.00;;;;;;5096595;28;20084;-77
2021/08/10 03:49:25;;;;;;;3.80;1.17;;;15.70;92.00;;;;;;5113763;27;20582;-77
2021/08/10 03:51:53;;;;;;;3.72;1.13;;;15.70;92.00;;;;;;5112642;27;20399;-77
2021/08/10 03:54:20;;;;;;;3.00;1.00;;;15.70;92.00;;;;;;5104850;28;20118;-78
2021/08/10 03:56:50;;;;;;;1.98;0.80;;;15.70;92.00;;;;;;5110746;28;20944;-77
2021/08/10 03:59:20;;;;;;;6.70;0.95;;;15.70;92.00;;;;;;5082609;28;20035;-77
2021/08/10 04:01:53;;;;;;;1.42;0.70;;;15.70;92.00;;;;;;5094169;28;20475;-77
2021/08/10 04:04:24;;;;;;;1.40;0.77;;;15.70;92.00;;;;;;5091777;28;20480;-77
2021/08/10 04:07:01;;;;;;;1.30;0.55;;;15.70;92.00;;;;;;5103593;27;20046;-77
2021/08/10 04:09:32;;;;;;;2.60;0.90;;;15.60;92.00;;;;;;5093646;28;20051;-77
2021/08/10 04:12:02;;;;;;;1.40;0.60;;;15.60;92.00;;;;;;5111978;28;20040;-77
2021/08/10 04:14:33;;;;;;;3.25;0.80;;;15.60;92.10;;;;;;5087372;28;20514;-77
2021/08/10 04:17:04;;;;;;;5.50;1.10;;;15.60;92.10;;;;;;5130881;28;20039;-78
2021/08/10 04:19:35;;;;;;;2.97;0.82;;;15.50;92.10;;;;;;5094863;28;20055;-77
2021/08/10 04:22:03;;;;;;;2.78;1.00;;;15.50;92.10;;;;;;5113229;28;20043;-78
2021/08/10 04:24:33;;;;;;;3.45;1.15;;;15.50;92.20;;;;;;5091504;28;20040;-77
2021/08/10 04:27:04;;;;;;;1.83;0.80;;;15.50;92.20;;;;;;5112276;28;20494;-77
2021/08/10 04:29:31;;;;;;;1.80;0.80;;;15.50;92.20;;;;;;5093633;28;20051;-77
2021/08/10 04:31:58;;;;;;;2.10;0.88;;;15.40;92.20;;;;;;5086724;28;20051;-77
2021/08/10 04:34:27;;;;;;;1.65;0.60;;;15.40;92.20;;;;;;5104088;28;20495;-76
2021/08/10 04:36:54;;;;;;;1.60;0.60;;;15.40;92.20;;;;;;5099893;28;20040;-78
2021/08/10 04:39:26;;;;;;;1.60;0.70;;;15.40;92.20;;;;;;5081878;28;20051;-77
2021/08/10 04:41:55;;;;;;;3.10;0.85;;;15.40;92.20;;;;;;5110726;28;20036;-77
2021/08/10 04:44:22;;;;;;;2.25;0.60;;;15.40;92.20;;;;;;5098612;28;20040;-77
2021/08/10 04:46:50;;;;;;;1.58;0.60;;;15.40;92.20;;;;;;5111599;28;20040;-77
2021/08/10 04:49:17;;;;;;;1.80;0.80;;;15.40;92.20;;;;;;5102363;28;20087;-77
2021/08/10 04:51:44;;;;;;;1.27;0.55;;;15.40;92.20;;;;;;5073793;28;20474;-77
2021/08/10 04:54:16;;;;;;;1.13;0.55;;;15.40;92.20;;;;;;5101918;28;20052;-77
2021/08/10 04:56:43;;;;;;;2.83;0.80;;;15.40;92.20;;;;;;5115735;27;20559;-78
2021/08/10 04:59:10;;;;;;;2.33;0.77;;;15.40;92.30;;;;;;5102963;28;20490;-77
2021/08/10 05:01:39;;;;;;;2.25;0.65;;;15.40;92.20;;;;;;5114301;28;20769;-75
2021/08/10 05:04:07;;;;;;;2.25;1.00;;;15.40;92.30;;;;;;5115078;27;20039;-75
2021/08/10 05:06:36;;;;;;;1.77;0.50;;;15.40;92.20;;;;;;5098236;27;20035;-75
2021/08/10 05:09:03;;;;;;;2.85;0.77;;;15.50;92.30;;;;;;5094442;28;20046;-75
2021/08/10 05:11:31;;;;;;;1.75;0.55;;;15.50;92.30;;;;;;5113953;28;20036;-75
2021/08/10 05:14:02;;;;;;;1.40;0.55;;;15.50;92.30;;;;;;5079711;28;20410;-74
2021/08/10 05:16:29;;;;;;;1.52;0.70;;;15.50;92.30;;;;;;5129368;27;20047;-75
2021/08/10 05:18:56;;;;;;;1.98;0.73;;;15.50;92.20;;;;;;5087228;28;20089;-75
2021/08/10 05:21:29;;;;;;;;;;;15.50;92.20;;;;;;5093983;28;20048;-75
2021/08/10 05:23:57;;;;;;;2.13;0.70;;;15.50;92.30;;;;;;5110550;28;19927;-75
2021/08/10 05:26:24;;;;;;;1.35;0.50;;;15.50;92.30;;;;;;5110834;28;20040;-75
2021/08/10 05:28:54;;;;;;;1.85;0.77;;;15.60;92.20;;;;;;5112876;28;20533;-75
2021/08/10 05:31:21;;;;;;;3.63;0.98;;;15.60;92.20;;;;;;5112548;28;20456;-75
2021/08/10 05:33:48;;;;;;;1.98;0.80;;;15.60;92.20;;;;;;5112297;27;20429;-75
2021/08/10 05:36:19;;;;;;;2.95;0.95;;;15.70;92.10;;;;;;5111978;27;20043;-75
2021/08/10 05:38:50;;;;;;;2.08;0.93;;;15.70;92.10;;;;;;5102118;28;20056;-75
2021/08/10 05:41:18;;;;;;;2.47;0.98;;;15.70;92.10;;;;;;5069231;28;20040;-75
2021/08/10 05:43:45;;;;;;;2.22;1.20;;;15.70;92.10;;;;;;5033974;28;20377;-75
2021/08/10 05:46:12;;;;;;;2.78;1.20;;;15.80;92.10;;;;;;5053698;28;20573;-75
2021/08/10 05:48:39;;;;;;;1.75;0.80;;;15.90;92.00;;;;;;5050917;28;20110;-75
2021/08/10 05:51:09;;;;;;;2.17;0.73;;;15.90;92.00;;;;;;5057292;28;20443;-75
2021/08/10 05:53:38;;;;;;;1.98;0.70;;;15.90;92.00;;;;;;5052653;28;20082;-75
2021/08/10 05:56:08;;;;;;;2.80;1.00;;;16.00;91.90;;;;;;5048944;28;20056;-75
2021/08/10 05:58:35;;;;;;;4.30;1.33;;;16.10;91.90;;;;;;5046463;28;20055;-75
2021/08/10 06:01:04;;;;;;;2.78;0.93;;;16.10;91.90;;;;;;5055956;28;20143;-75
2021/08/10 06:03:33;;;;;;;2.97;1.17;;;16.20;91.90;;;;;;5035950;28;20512;-75
2021/08/10 06:06:01;;;;;;;2.65;1.27;;;16.20;91.80;;;;;;5067632;28;20044;-74
2021/08/10 06:08:45;;;;;;;2.33;1.08;;;16.30;91.80;;;;;;5054558;28;20055;-74
2021/08/10 06:11:12;;;;;;;2.58;1.27;;;16.30;91.80;;;;;;5055558;28;20064;-75
2021/08/10 06:13:40;;;;;;;3.25;0.95;;;16.30;91.80;;;;;;5092831;28;20040;-75
2021/08/10 06:16:08;;;;;;;3.20;1.15;;;16.30;92.00;;;;;;5113099;27;20071;-77
2021/08/10 06:18:36;;;;;;;2.67;0.98;;;16.40;91.80;;;;;;5113788;28;20044;-77
2021/08/10 06:21:09;;;;;;;2.63;0.98;;;16.40;91.80;;;;;;5113305;28;20441;-77
2021/08/10 06:23:38;;;;;;;3.38;1.20;;;16.50;91.80;;;;;;5112863;28;20060;-77
2021/08/10 06:26:06;;;;;;;2.95;1.05;;;16.60;91.70;;;;;;5124084;27;20035;-78
2021/08/10 06:28:33;;;;;;;1.85;0.85;;;16.60;91.70;;;;;;5100455;28;20074;-77
2021/08/10 06:31:03;;;;;;;2.80;1.50;;;16.70;91.60;;;;;;5107404;28;20044;-77
2021/08/10 06:33:32;;;;;;;2.50;1.05;;;16.80;91.70;;;;;;5075745;28;20040;-77
2021/08/10 06:35:59;;;;;;;2.13;1.10;;;16.90;91.50;;;;;;5089384;28;20085;-77
2021/08/10 06:38:29;;;;;;;3.80;1.00;;;17.10;91.50;;;;;;5105508;28;20135;-77
2021/08/10 06:40:56;;;;;;;3.50;1.52;;;17.30;91.40;;;;;;5087837;28;20803;-77
2021/08/10 06:43:23;;;;;;;3.00;1.10;;;17.40;91.20;;;;;;5092245;28;20715;-78
2021/08/10 06:46:10;;;;;;;2.78;1.20;;;17.50;91.20;;;;;;5111564;28;20118;-77
2021/08/10 06:48:37;;;;;;;3.28;1.52;;;17.50;91.10;;;;;;5096395;28;20063;-77
2021/08/10 06:51:04;;;;;;;2.72;1.20;;;17.50;91.10;;;;;;5095035;27;20103;-77
2021/08/10 06:53:31;;;;;;;5.43;1.90;;;17.50;91.10;;;;;;5102779;27;20040;-77
2021/08/10 06:55:59;;;;;;;2.97;1.52;;;17.50;91.10;;;;;;5109449;27;20124;-77
2021/08/10 06:58:27;;;;;;;2.85;1.27;;;17.50;91.10;;;;;;5113733;27;20059;-77
2021/08/10 07:01:03;;;;;;;3.17;1.63;;;17.60;91.10;;;;;;5097085;28;20130;-77
2021/08/10 07:03:36;;;;;;;3.05;1.20;;;17.60;91.10;;;;;;5097809;27;20036;-77
2021/08/10 07:06:03;;;;;;;3.88;1.45;;;17.70;91.10;;;;;;5113530;28;20109;-77
2021/08/10 07:08:37;;;;;;;3.72;1.60;;;17.70;91.00;;;;;;5108392;27;20487;-77
2021/08/10 07:11:05;;;;;;;3.75;1.20;;;17.70;91.30;;;;;;5113314;28;20047;-77
2021/08/10 07:13:35;;;;;;;2.92;1.10;;;17.80;91.10;;;;;;5112635;28;20043;-77
2021/08/10 07:16:02;;;;;;;3.72;1.92;;;17.80;91.10;;;;;;5111115;28;20055;-77
2021/08/10 07:18:30;;;;;;;3.20;1.90;;;17.90;91.00;;;;;;5111832;28;20040;-77
2021/08/10 07:20:58;;;;;;;4.55;2.45;;;18.00;91.00;;;;;;5109704;28;20035;-76
2021/08/10 07:23:26;;;;;;;4.50;2.30;;;18.00;90.70;;;;;;5107710;28;20396;-77
2021/08/10 07:25:53;;;;;;;3.55;1.63;;;18.10;90.80;;;;;;5110448;28;20066;-76
2021/08/10 07:28:24;;;;;;;4.63;1.17;;;18.20;90.70;;;;;;5096241;28;20050;-77
2021/08/10 07:30:52;;;;;;;2.88;1.23;;;18.40;90.70;;;;;;5108982;27;20044;-77
2021/08/10 07:33:21;;;;;;;4.05;1.88;;;18.60;90.60;;;;;;5120018;27;20111;-77
2021/08/10 07:35:48;;;;;;;6.43;2.67;;;18.60;90.50;;;;;;5119182;27;20040;-77
2021/08/10 07:38:15;;;;;;;4.53;2.42;;;18.50;90.40;;;;;;5111487;28;20495;-77
2021/08/10 07:40:42;;;;;;;4.45;2.47;;;18.50;90.40;;;;;;5091408;28;20395;-77
2021/08/10 07:43:09;;;;;;;4.05;2.00;;;18.40;90.50;;;;;;5094309;28;20128;-75
2021/08/10 07:45:39;;;;;;;4.30;1.73;;;18.40;90.60;;;;;;5110650;27;20413;-76
2021/08/10 07:48:15;;;;;;;3.47;2.03;;;18.40;90.60;;;;;;5078182;28;20131;-76
2021/08/10 07:50:43;;;;;;;3.10;1.42;;;18.50;90.50;;;;;;5094316;28;20048;-76
2021/08/10 07:53:11;;;;;;;2.97;1.92;;;18.50;90.50;;;;;;5110709;28;20039;-76
2021/08/10 07:55:38;;;;;;;6.82;2.85;;;18.60;90.70;;;;;;5094091;28;20097;-75
2021/08/10 07:58:07;;;;;;;4.47;2.03;;;18.70;90.30;;;;;;5109981;28;20043;-76
2021/08/10 08:00:34;;;;;;;2.78;1.48;;;18.80;90.30;;;;;;5099096;28;20429;-78
2021/08/10 08:03:02;;;;;;;3.90;2.08;;;18.90;90.30;;;;;;5111236;28;20580;-77
2021/08/10 08:05:29;;;;;;;4.55;2.47;;;18.80;90.20;;;;;;5115177;28;20065;-76
2021/08/10 08:07:59;;;;;;;4.10;1.40;;;18.70;90.20;;;;;;5089500;28;20518;-77
2021/08/10 08:10:26;;;;;;;5.32;2.22;;;18.60;90.40;;;;;;5090428;28;20507;-77
2021/08/10 08:13:24;;;;;;;3.58;1.83;;;18.70;90.40;;;;;;5078764;28;20044;-77
2021/08/10 08:15:56;;;;;;;4.07;2.17;;;18.90;90.30;;;;;;5092641;28;20044;-79
2021/08/10 08:18:34;;;;;;;2.92;1.48;;;18.90;90.00;;;;;;5128508;28;20032;-79
2021/08/10 08:21:04;;;;;;;5.70;2.42;;;19.00;90.00;;;;;;5082026;28;20046;-77
2021/08/10 08:23:38;;;;;;;5.53;2.08;;;19.00;90.10;;;;;;5115740;28;20046;-82
2021/08/10 08:26:06;;;;;;;4.53;2.22;;;19.10;90.00;;;;;;5089578;28;20505;-79
2021/08/10 08:28:37;;;;;;;3.55;1.45;;;19.10;90.00;;;;;;5112745;28;20367;-76
2021/08/10 08:31:05;;;;;;;2.97;1.70;;;19.10;90.00;;;;;;5102789;28;20063;-78
2021/08/10 08:33:32;;;;;;;3.80;1.95;;;19.30;89.90;;;;;;5095363;27;20078;-79
2021/08/10 08:35:59;;;;;;;3.97;2.08;;;19.30;89.40;;;;;;5103180;28;20415;-79
2021/08/10 08:38:26;;;;;;;5.07;1.90;;;19.40;89.60;;;;;;5082593;27;20088;-80
2021/08/10 08:40:56;;;;;;;5.57;2.25;;;19.50;89.30;;;;;;5114511;28;20046;-80
2021/08/10 08:43:26;;;;;;;4.45;1.83;;;19.50;88.70;;;;;;5096721;28;20039;-78
2021/08/10 08:46:13;;;;;;;2.65;1.48;;;19.50;89.00;;;;;;5081764;28;20056;-81
2021/08/10 08:48:44;;;;;;;3.85;1.77;;;19.60;89.20;;;;;;5090686;28;20040;-81
2021/08/10 08:51:17;;;;;;;5.03;1.67;;;19.80;88.70;;;;;;5110454;27;20073;-77
2021/08/10 08:53:51;;;;;;;4.53;1.77;;;19.80;88.80;;;;;;5106954;27;20040;-77
2021/08/10 08:56:21;;;;;;;3.42;1.50;;;19.90;89.00;;;;;;5122676;27;20082;-78
2021/08/10 08:58:51;;;;;;;2.50;1.13;;;19.90;88.70;;;;;;5070424;28;20044;-76
2021/08/10 09:01:19;;;;;;;3.80;1.17;;;20.20;88.90;;;;;;5104061;28;20075;-77
2021/08/10 09:03:51;;;;;;;2.53;1.23;;;20.50;88.40;;;;;;5090423;28;20068;-76
2021/08/10 09:06:19;;;;;;;2.83;1.38;;;20.60;87.80;;;;;;5087308;28;20138;-78
2021/08/10 09:08:47;;;;;;;2.72;1.23;;;20.70;87.50;;;;;;5108578;27;20047;-81
2021/08/10 09:11:21;;;;;;;1.27;0.52;;;20.70;87.40;;;;;;5108061;28;20392;-79
2021/08/10 09:14:02;;;;;;;3.47;1.00;;;20.70;87.70;;;;;;5088198;28;20164;-79
2021/08/10 09:16:35;;;;;;;1.83;1.02;;;20.60;87.50;;;;;;5092433;28;20913;-79
2021/08/10 09:19:07;;;;;;;1.33;0.70;;;20.40;87.80;;;;;;5093479;28;20055;-80
2021/08/10 09:21:36;;;;;;;1.65;0.85;;;20.30;88.00;;;;;;5110304;28;20044;-79
2021/08/10 09:24:13;;;;;;;2.25;0.93;;;20.20;87.80;;;;;;5107364;28;20043;-79
2021/08/10 09:26:43;;;;;;;2.95;0.82;;;20.20;87.50;;;;;;5096166;28;20035;-80
2021/08/10 09:29:23;;;;;;;3.03;1.23;;;20.10;87.80;;;;;;5092866;28;20047;-79
2021/08/10 09:31:53;;;;;;;2.78;1.10;;;20.00;87.30;;;;;;5103124;28;20052;-79
2021/08/10 09:34:24;;;;;;;;;;;19.90;87.60;;;;;;5111666;28;20047;-79
2021/08/10 09:36:53;;;;;;;2.97;1.20;;;19.80;88.30;;;;;;5117021;27;19927;-79
2021/08/10 09:39:28;;;;;;;2.30;1.00;;;19.70;88.40;;;;;;5076393;28;20062;-80
2021/08/10 09:42:03;;;;;;;2.42;1.27;;;19.70;88.20;;;;;;5094585;28;20542;-80
2021/08/10 09:44:33;;;;;;;1.65;0.80;;;19.60;88.00;;;;;;5082090;28;20044;-79
2021/08/10 09:47:00;;;;;;;1.83;0.70;;;19.60;88.20;;;;;;5121101;27;20047;-79
2021/08/10 09:49:45;;;;;;;2.47;0.82;;;19.60;88.30;;;;;;5095662;27;20409;-80
2021/08/10 09:52:28;;;;;;;2.35;0.95;;;19.80;88.20;;;;;;5111293;28;20052;-77
2021/08/10 09:55:16;;;;;;;2.67;0.80;;;19.80;88.10;;;;;;5104060;28;20127;-79
2021/08/10 09:57:59;;;;;;;2.03;0.90;;;19.80;88.00;;;;;;5108092;28;20047;-83
2021/08/10 10:00:41;;;;;;;2.63;1.15;;;19.80;88.10;;;;;;5093442;28;20508;-79
2021/08/10 10:03:27;;;;;;;3.00;1.13;;;19.60;88.20;;;;;;5111410;27;20068;-92
2021/08/10 10:06:05;;;;;;;1.48;0.70;;;19.40;88.80;;;;;;5106566;27;20043;-83
2021/08/10 10:08:34;;;;;;;3.20;1.20;;;19.40;89.30;;;;;;5085652;28;20044;-84
2021/08/10 10:11:01;;;;;;;2.10;0.85;;;19.40;89.30;;;;;;5086571;28;20036;-83
2021/08/10 10:13:35;;;;;;;1.42;0.75;;;19.40;89.20;;;;;;5075114;28;20040;-84
2021/08/10 10:16:06;;;;;;;1.90;1.00;;;19.70;89.20;;;;;;5095477;28;20082;-83
2021/08/10 10:18:34;;;;;;;2.55;1.30;;;20.10;88.80;;;;;;5094995;28;20517;-78
2021/08/10 10:21:02;;;;;;;3.05;1.23;;;20.20;88.10;;;;;;5095774;28;20067;-78
2021/08/10 10:23:31;;;;;;;2.53;0.90;;;20.10;88.00;;;;;;5106592;28;20036;-80
2021/08/10 10:26:01;;;;;;;2.38;1.08;;;20.10;88.10;;;;;;5087688;28;20079;-82
2021/08/10 10:28:33;;;;;;;4.22;1.20;;;20.00;88.20;;;;;;5102918;27;20044;-83
2021/08/10 10:31:01;;;;;;;1.98;1.08;;;20.10;88.20;;;;;;5091479;28;20500;-81
2021/08/10 10:33:29;;;;;;;2.45;1.10;;;20.10;88.20;;;;;;5096821;28;20042;-82
2021/08/10 10:35:58;;;;;;;1.38;0.70;;;20.10;88.20;;;;;;5119701;27;20050;-84
2021/08/10 10:38:25;;;;;;;1.92;0.70;;;20.10;88.30;;;;;;5097398;28;20046;-83
2021/08/10 10:40:55;;;;;;;1.88;0.85;;;20.10;88.40;;;;;;5078805;28;20120;-86
2021/08/10 10:43:44;;;;;;;2.47;0.85;;;20.20;88.20;;;;;;5118243;27;20039;-87
2021/08/10 10:46:32;;;;;;;1.70;1.00;;;20.50;88.10;;;;;;5061298;28;20135;-90
2021/08/10 10:49:03;;;;;;;1.92;1.02;;;20.90;87.50;;;;;;5100973;28;20051;-81
2021/08/10 10:51:45;;;;;;;1.95;1.00;;;21.30;87.10;;;;;;5095169;28;20061;-83
2021/08/10 10:54:26;;;;;;;4.18;1.77;;;21.90;86.40;;;;;;5078561;28;20082;-82
2021/08/10 10:56:59;;;;;;;3.03;1.00;;;22.30;83.90;;;;;;5117930;27;20036;-82
2021/08/10 10:59:34;;;;;;;3.80;1.13;;;22.60;83.90;;;;;;5095548;28;20039;-79
2021/08/10 11:02:13;;;;;;;3.67;1.48;;;22.70;83.50;;;;;;5108241;28;20047;-79
2021/08/10 11:05:06;;;;;;;2.97;1.40;;;22.60;83.00;;;;;;5087970;28;20081;-78
2021/08/10 11:07:51;;;;;;;4.07;1.58;;;22.90;81.20;;;;;;5104071;27;20039;-85
2021/08/10 11:10:39;;;;;;;3.78;1.83;;;23.10;80.60;;;;;;5094540;28;20411;-85
2021/08/10 11:13:33;;;;;;;3.78;1.45;;;23.40;78.50;;;;;;5065829;28;20052;-87
2021/08/10 11:16:01;;;;;;;4.05;1.90;;;23.50;78.40;;;;;;5094928;28;20073;-88
2021/08/10 11:18:33;;;;;;;3.35;1.83;;;23.40;78.50;;;;;;5110630;28;20130;-89
2021/08/10 11:21:00;;;;;;;5.57;1.73;;;23.70;77.50;;;;;;5109266;28;20051;-90
2021/08/10 11:23:32;;;;;;;2.80;1.65;;;24.10;76.30;;;;;;5086468;28;20051;-91
2021/08/10 11:25:59;;;;;;;;;;;23.80;76.00;;;;;;5079645;28;20044;-83
2021/08/10 11:28:28;;;;;;;4.82;1.50;;;23.60;77.30;;;;;;5110859;28;20004;-85
2021/08/10 11:31:00;;;;;;;3.78;1.35;;;23.70;76.80;;;;;;5086644;28;20043;-83
2021/08/10 11:33:34;;;;;;;;;;;24.20;75.50;;;;;;5108327;28;20047;-82
2021/08/10 11:36:16;;;;;;;4.10;1.52;;;24.00;76.20;;;;;;5108907;28;20014;-83
2021/08/10 11:38:52;;;;;;;2.95;1.60;;;23.70;76.60;;;;;;5093604;28;20092;-83
2021/08/10 11:41:25;;;;;;;3.70;1.70;;;23.40;77.10;;;;;;5104805;27;20435;-84
2021/08/10 11:44:04;;;;;;;3.08;1.40;;;23.30;77.00;;;;;;5090158;28;20039;-82
2021/08/10 11:46:34;;;;;;;4.53;1.75;;;23.30;76.50;;;;;;5094851;27;20134;-86
2021/08/10 11:49:09;;;;;;;3.53;2.00;;;23.10;76.50;;;;;;5092294;28;20044;-88
2021/08/10 11:51:42;;;;;;;4.60;1.85;;;22.90;76.20;;;;;;5086077;28;20047;-80
2021/08/10 11:54:16;;;;;;;2.85;1.77;;;22.80;76.50;;;;;;5100748;28;20135;-85
2021/08/10 11:56:46;;;;;;;5.68;2.45;;;22.60;75.70;;;;;;5107633;28;20036;-86
2021/08/10 11:59:18;;;;;;;4.50;2.50;;;22.60;75.00;;;;;;5092048;28;20093;-84
2021/08/10 12:01:45;;;;;;;;;;;22.80;74.00;;;;;;5103381;28;20035;-87
2021/08/10 12:04:18;;;;;;;3.63;1.90;;;22.60;73.70;;;;;;5091539;28;19924;-86
2021/08/10 12:06:51;;;;;;;5.25;2.28;;;22.60;74.10;;;;;;5093554;28;20047;-93
2021/08/10 12:09:38;;;;;;;3.28;1.95;;;23.10;72.70;;;;;;5101947;28;20043;-86
2021/08/10 12:12:08;;;;;;;3.22;1.80;;;23.70;71.80;;;;;;5102636;28;20040;-81
2021/08/10 12:14:35;;;;;;;4.55;1.88;;;24.60;70.60;;;;;;5107951;28;20043;-85
2021/08/10 12:17:19;;;;;;;4.57;1.55;;;25.40;69.30;;;;;;5118907;28;20067;-94
2021/08/10 12:19:48;;;;;;;3.58;1.55;;;25.80;67.80;;;;;;5095374;28;20040;-82
2021/08/10 12:22:21;;;;;;;3.83;1.55;;;26.00;67.10;;;;;;5095368;28;20043;-81
2021/08/10 12:24:50;;;;;;;3.20;1.65;;;25.60;66.50;;;;;;5102837;28;20062;-81
2021/08/10 12:27:19;;;;;;;3.70;1.67;;;24.90;68.00;;;;;;5085958;28;20060;-78
2021/08/10 12:29:48;;;;;;;6.32;2.40;;;24.80;68.80;;;;;;5108007;28;20144;-76
2021/08/10 12:32:27;;;;;;;3.03;1.73;;;25.30;66.30;;;;;;5099961;28;20480;-78
2021/08/10 12:34:54;;;;;;;4.20;2.08;;;25.20;65.30;;;;;;5104953;28;20066;-77
2021/08/10 12:37:31;;;;;;;4.38;1.92;;;25.50;63.80;;;;;;5098089;28;20100;-78
2021/08/10 12:39:59;;;;;;;4.35;2.22;;;26.20;63.70;;;;;;5094778;28;20090;-79
2021/08/10 12:42:27;;;;;;;4.82;1.90;;;26.60;62.40;;;;;;5103356;28;20093;-77
2021/08/10 12:44:55;;;;;;;5.72;2.35;;;26.60;61.30;;;;;;5105131;28;20148;-75
2021/08/10 12:47:39;;;;;;;5.45;2.50;;;26.60;60.70;;;;;;5105065;28;20044;-76
2021/08/10 12:50:27;;;;;;;4.93;2.22;;;26.50;59.10;;;;;;5106907;28;20031;-76
2021/08/10 12:52:55;;;;;;;3.00;1.67;;;25.80;61.30;;;;;;5099560;28;20116;-76
2021/08/10 12:55:22;;;;;;;3.47;1.60;;;26.20;61.60;;;;;;5104252;28;20047;-78
2021/08/10 12:58:02;;;;;;;4.18;2.38;;;27.00;60.00;;;;;;5108271;28;20074;-76
2021/08/10 13:00:29;;;;;;;2.90;1.67;;;27.50;58.80;;;;;;5105570;28;20114;-76
2021/08/10 13:02:56;;;;;;;4.13;1.92;;;27.70;58.40;;;;;;5103779;28;20054;-77
2021/08/10 13:05:37;;;;;;;3.75;1.85;;;27.90;57.20;;;;;;5087407;28;20489;-77
2021/08/10 13:08:08;;;;;;;3.75;1.70;;;27.10;57.50;;;;;;5104781;28;20414;-77
2021/08/10 13:10:39;;;;;;;2.85;1.17;;;26.50;59.50;;;;;;5102307;28;20044;-80